Time;durP1;ratioP1;P1;durP2;ratioP2;P2;SDS_P1;SDS_P2;PMS_P1;PMS_P2;Temp;Humidity;BMP_temperature;BMP_pressure;BME280_temperature;BME280_humidity;BME280_pressure;Samples;Min_cycle;Max_cycle;Signal;HPM_P1;HPM_P2
2023/06/23 00:00:45;;;;;;;6.90;3.70;;;;;;;15.55;100.00;100623.04;105409;1254;71415;-62
2023/06/23 00:03:13;;;;;;;6.10;3.70;;;;;;;15.50;100.00;100628.80;105388;1253;59599;-61
2023/06/23 00:05:40;;;;;;;6.50;4.00;;;;;;;15.47;100.00;100621.80;105311;1253;60121;-61
2023/06/23 00:08:08;;;;;;;6.50;3.50;;;;;;;15.43;100.00;100620.00;105182;1251;71819;-67
2023/06/23 00:10:36;;;;;;;5.10;3.50;;;;;;;15.41;100.00;100615.27;105201;1253;66926;-61
2023/06/23 00:13:04;;;;;;;8.50;3.60;;;;;;;15.39;100.00;100616.83;105436;1253;71514;-63
2023/06/23 00:15:32;;;;;;;9.60;3.80;;;;;;;15.37;100.00;100620.21;105429;1253;60157;-62
2023/06/23 00:18:00;;;;;;;6.70;3.80;;;;;;;15.39;100.00;100620.17;105398;1252;60046;-61
2023/06/23 00:20:28;;;;;;;8.30;3.30;;;;;;;15.42;100.00;100615.52;105460;1252;73081;-63
2023/06/23 00:22:56;;;;;;;9.80;3.50;;;;;;;15.47;100.00;100613.41;105535;1253;66357;-68
2023/06/23 00:25:23;;;;;;;5.30;3.40;;;;;;;15.50;100.00;100613.12;105361;1257;72678;-63
2023/06/23 00:27:51;;;;;;;5.30;3.10;;;;;;;15.53;100.00;100613.86;105383;1253;59679;-62
2023/06/23 00:30:19;;;;;;;8.60;3.10;;;;;;;15.52;100.00;100605.34;109364;1251;58815;-66
2023/06/23 00:32:47;;;;;;;8.10;3.70;;;;;;;15.53;100.00;100607.20;109282;1251;73577;-66
2023/06/23 00:35:14;;;;;;;6.00;3.40;;;;;;;15.55;100.00;100604.94;109343;1251;65065;-63
2023/06/23 00:37:43;;;;;;;6.60;3.50;;;;;;;15.57;100.00;100601.86;109204;1252;71409;-63
2023/06/23 00:40:10;;;;;;;5.50;3.10;;;;;;;15.62;100.00;100601.97;109229;1252;60161;-65
2023/06/23 00:42:48;;;;;;;6.20;3.80;;;;;;;15.65;100.00;100601.77;109138;1251;58810;-64
2023/06/23 00:45:16;;;;;;;4.70;3.10;;;;;;;15.65;100.00;100595.95;109290;1252;71868;-63
2023/06/23 00:47:44;;;;;;;6.60;3.20;;;;;;;15.63;100.00;100591.33;109359;1252;65665;-63
2023/06/23 00:50:13;;;;;;;5.00;3.20;;;;;;;15.60;100.00;100586.27;109233;1251;72730;-64
2023/06/23 00:52:51;;;;;;;7.70;3.40;;;;;;;15.57;100.00;100582.83;109056;1253;58856;-63
2023/06/23 00:55:20;;;;;;;6.50;3.00;;;;;;;15.53;100.00;100578.70;109210;1251;60052;-64
2023/06/23 00:57:48;;;;;;;8.10;3.50;;;;;;;15.52;100.00;100576.68;109285;1251;73039;-63
2023/06/23 01:00:18;;;;;;;5.30;3.40;;;;;;;15.50;100.00;100573.95;109093;1251;65652;-62
2023/06/23 01:02:53;;;;;;;6.10;3.20;;;;;;;15.46;100.00;100575.50;109139;1252;72753;-60
2023/06/23 01:05:23;;;;;;;6.00;3.30;;;;;;;15.41;100.00;100577.53;109307;1253;60078;-61
2023/06/23 01:08:04;;;;;;;5.90;2.90;;;;;;;15.33;100.00;100576.75;109302;1252;60019;-64
2023/06/23 01:11:22;;;;;;;6.70;2.90;;;;;;;15.26;100.00;100578.75;109166;1253;74095;-61
2023/06/23 01:14:02;;;;;;;6.70;2.90;;;;;;;15.17;100.00;100577.02;109160;1251;67076;-62
2023/06/23 01:16:32;;;;;;;;;;;;;;;15.14;100.00;100577.84;109189;1251;72777;-61
2023/06/23 01:19:21;;;;;;;4.80;3.00;;;;;;;15.14;100.00;100579.86;109070;1251;60100;-65
2023/06/23 01:22:33;;;;;;;6.40;3.10;;;;;;;15.14;100.00;100580.59;109233;1252;60094;-60
2023/06/23 01:25:11;;;;;;;4.70;2.70;;;;;;;15.12;100.00;100581.64;108732;1259;72903;-60
2023/06/23 01:28:00;;;;;;;6.00;3.00;;;;;;;15.12;100.00;100582.06;109238;1251;66119;-62
2023/06/23 01:30:29;;;;;;;9.40;3.50;;;;;;;15.10;100.00;100580.95;109310;1251;72775;-61
2023/06/23 01:33:09;;;;;;;5.30;3.20;;;;;;;15.08;100.00;100583.98;109191;1251;60170;-60
2023/06/23 01:35:40;;;;;;;5.60;2.60;;;;;;;15.05;100.00;100585.41;109079;1251;60650;-60
2023/06/23 01:38:14;;;;;;;5.80;2.70;;;;;;;15.03;100.00;100584.77;109199;1251;73058;-61
2023/06/23 01:40:41;;;;;;;5.60;3.00;;;;;;;15.01;100.00;100587.52;109152;1251;66203;-60
2023/06/23 01:43:09;;;;;;;6.60;3.60;;;;;;;15.02;100.00;100586.06;109284;1251;71405;-65
2023/06/23 01:45:39;;;;;;;5.40;3.20;;;;;;;15.04;100.00;100584.94;109236;1252;58823;-61
2023/06/23 01:48:07;;;;;;;7.20;3.20;;;;;;;15.05;100.00;100589.86;109305;1251;60065;-61
2023/06/23 01:50:35;;;;;;;5.80;2.80;;;;;;;15.05;100.00;100590.02;109167;1251;71868;-61
2023/06/23 01:53:03;;;;;;;5.80;3.20;;;;;;;15.06;100.00;100591.21;109130;1251;65974;-64
2023/06/23 01:55:33;;;;;;;7.70;3.00;;;;;;;15.08;100.00;100591.67;109296;1251;71102;-61
2023/06/23 01:58:01;;;;;;;7.70;3.00;;;;;;;15.11;100.00;100587.94;109357;1251;58858;-61
2023/06/23 02:00:28;;;;;;;5.10;3.10;;;;;;;15.18;100.00;100591.77;109335;1251;58988;-61
2023/06/23 02:02:58;;;;;;;5.90;3.20;;;;;;;15.34;100.00;100587.46;109384;1251;71833;-61
2023/06/23 02:05:26;;;;;;;7.90;3.90;;;;;;;15.58;100.00;100586.73;109333;1251;67445;-61
2023/06/23 02:07:54;;;;;;;5.50;3.40;;;;;;;15.81;100.00;100585.30;109341;1251;71438;-61
2023/06/23 02:10:24;;;;;;;5.40;3.20;;;;;;;16.06;100.00;100585.14;109257;1251;60302;-61
2023/06/23 02:12:52;;;;;;;3.90;2.60;;;;;;;16.33;100.00;100587.69;109395;1251;58970;-61
2023/06/23 02:15:20;;;;;;;9.90;3.40;;;;;;;16.51;100.00;100580.23;109151;1251;73151;-64
2023/06/23 02:17:47;;;;;;;6.90;3.30;;;;;;;16.71;100.00;100581.54;109322;1252;67075;-61
2023/06/23 02:20:15;;;;;;;18.70;4.80;;;;;;;16.98;100.00;100576.90;109349;1251;71436;-61
2023/06/23 02:22:47;;;;;;;6.60;3.90;;;;;;;17.24;100.00;100575.61;109239;1251;60149;-61
2023/06/23 02:25:14;;;;;;;;;;;;;;;17.42;100.00;100571.91;109207;1253;58824;-65
2023/06/23 02:27:44;;;;;;;7.50;3.90;;;;;;;17.50;100.00;100571.66;109272;1252;73654;-61
2023/06/23 02:30:11;;;;;;;7.50;3.70;;;;;;;17.58;100.00;100570.71;109353;1251;66930;-62
2023/06/23 02:32:39;;;;;;;8.40;4.70;;;;;;;17.73;100.00;100572.82;109129;1253;73157;-61
2023/06/23 02:35:12;;;;;;;9.70;4.50;;;;;;;18.01;100.00;100573.44;109306;1251;60211;-64
2023/06/23 02:37:41;;;;;;;8.90;5.00;;;;;;;18.43;100.00;100574.05;109285;1253;58773;-61
2023/06/23 02:40:12;;;;;;;9.40;4.90;;;;;;;18.88;100.00;100575.95;109154;1251;72660;-61
2023/06/23 02:42:41;;;;;;;9.40;5.00;;;;;;;19.27;100.00;100579.86;109313;1251;66871;-61
2023/06/23 02:45:16;;;;;;;9.20;4.70;;;;;;;19.57;100.00;100579.73;109110;1252;72186;-62
2023/06/23 02:47:44;;;;;;;11.50;4.70;;;;;;;19.78;100.00;100581.48;109130;1253;58844;-61
2023/06/23 02:50:11;;;;;;;9.40;5.10;;;;;;;19.82;100.00;100581.93;109271;1251;59651;-62
2023/06/23 02:52:42;;;;;;;9.70;4.50;;;;;;;19.75;100.00;100583.86;109325;1251;72624;-61
2023/06/23 02:55:10;;;;;;;13.90;5.30;;;;;;;19.64;100.00;100586.48;109147;1251;68307;-61
2023/06/23 02:57:38;;;;;;;9.00;4.30;;;;;;;19.53;100.00;100590.80;109346;1251;72722;-61
2023/06/23 03:00:12;;;;;;;8.40;4.90;;;;;;;19.43;100.00;100590.55;109344;1251;60024;-61
2023/06/23 03:02:42;;;;;;;7.10;4.40;;;;;;;19.35;100.00;100589.80;109273;1251;58754;-65
2023/06/23 03:05:09;;;;;;;9.90;5.20;;;;;;;19.29;100.00;100589.15;109189;1251;72955;-61
2023/06/23 03:07:38;;;;;;;7.50;4.60;;;;;;;19.25;100.00;100587.11;109419;1251;66923;-61
2023/06/23 03:10:07;;;;;;;7.60;4.40;;;;;;;19.20;100.00;100585.04;109367;1251;72695;-60
2023/06/23 03:12:34;;;;;;;6.40;4.40;;;;;;;19.13;100.00;100590.82;109374;1251;60129;-65
2023/06/23 03:15:04;;;;;;;7.20;4.60;;;;;;;19.05;100.00;100591.81;109337;1252;60468;-61
2023/06/23 03:17:32;;;;;;;11.60;5.20;;;;;;;18.97;100.00;100589.47;109449;1251;73211;-62
2023/06/23 03:20:10;;;;;;;9.70;5.30;;;;;;;18.88;100.00;100590.25;109153;1251;65809;-61
2023/06/23 03:22:48;;;;;;;9.90;4.90;;;;;;;18.82;100.00;100593.14;109264;1251;70629;-65
2023/06/23 03:25:17;;;;;;;12.50;5.30;;;;;;;18.82;100.00;100595.63;109146;1253;58850;-61
2023/06/23 03:27:45;;;;;;;9.60;5.30;;;;;;;18.83;100.00;100592.69;109341;1251;60204;-61
2023/06/23 03:30:20;;;;;;;10.30;5.20;;;;;;;18.83;100.00;100595.48;109313;1251;73969;-65
2023/06/23 03:32:50;;;;;;;11.40;5.70;;;;;;;18.83;100.00;100592.85;109252;1251;66851;-61
2023/06/23 03:35:24;;;;;;;9.20;5.00;;;;;;;18.86;100.00;100589.59;109169;1251;72637;-60
2023/06/23 03:37:59;;;;;;;9.90;5.50;;;;;;;18.92;100.00;100586.23;109110;1256;60330;-61
2023/06/23 03:40:28;;;;;;;10.40;5.30;;;;;;;19.00;100.00;100585.23;109247;1252;58828;-61
2023/06/23 03:43:00;;;;;;;11.40;5.00;;;;;;;19.09;100.00;100587.39;109337;1251;72638;-61
2023/06/23 03:45:27;;;;;;;8.40;5.20;;;;;;;19.17;100.00;100588.67;109300;1251;66922;-61
2023/06/23 03:48:01;;;;;;;11.50;6.30;;;;;;;19.26;100.00;100590.47;109278;1252;72740;-65
2023/06/23 03:50:31;;;;;;;11.10;6.00;;;;;;;19.38;100.00;100583.89;109128;1253;60196;-61
2023/06/23 03:53:03;;;;;;;11.50;5.10;;;;;;;19.56;100.00;100584.31;109094;1251;60085;-61
2023/06/23 03:55:32;;;;;;;9.30;5.10;;;;;;;19.77;100.00;100583.10;109194;1251;72521;-61
2023/06/23 03:58:03;;;;;;;8.70;5.50;;;;;;;19.96;100.00;100582.13;109193;1251;66968;-64
2023/06/23 04:00:31;;;;;;;;;;;;;;;20.15;100.00;100581.62;109378;1251;71458;-61
2023/06/23 04:02:59;;;;;;;11.30;5.50;;;;;;;20.37;100.00;100583.36;109351;1251;58825;-61
2023/06/23 04:05:29;;;;;;;9.80;5.20;;;;;;;20.58;100.00;100583.48;109290;1251;59186;-61
2023/06/23 04:07:58;;;;;;;12.10;5.20;;;;;;;20.86;100.00;100580.83;109177;1251;73916;-62
2023/06/23 04:10:26;;;;;;;12.80;5.60;;;;;;;21.18;100.00;100579.56;109153;1253;67404;-61
2023/06/23 04:12:54;;;;;;;12.10;6.00;;;;;;;21.43;100.00;100576.09;109283;1251;72787;-61
2023/06/23 04:15:22;;;;;;;9.60;5.70;;;;;;;21.55;100.00;100572.21;109347;1251;60034;-61
2023/06/23 04:17:50;;;;;;;14.20;6.00;;;;;;;21.53;100.00;100565.64;109262;1253;59064;-65
2023/06/23 04:20:19;;;;;;;13.10;5.40;;;;;;;21.51;100.00;100564.10;109137;1253;74462;-61
2023/06/23 04:22:46;;;;;;;10.40;5.40;;;;;;;21.53;100.00;100563.48;109192;1251;65525;-61
2023/06/23 04:25:14;;;;;;;12.40;5.10;;;;;;;21.57;100.00;100560.92;109363;1252;72740;-61
2023/06/23 04:27:45;;;;;;;14.10;5.10;;;;;;;21.62;100.00;100562.73;109142;1253;59339;-65
2023/06/23 04:30:13;;;;;;;7.20;4.80;;;;;;;21.85;100.00;100564.83;109242;1252;58825;-61
2023/06/23 04:32:41;;;;;;;8.70;4.20;;;;;;;22.19;100.00;100566.65;109306;1252;72692;-62
2023/06/23 04:35:09;;;;;;;9.60;4.90;;;;;;;22.58;100.00;100569.33;109343;1251;67425;-61
2023/06/23 04:37:52;;;;;;;7.20;4.00;;;;;;;22.84;100.00;100568.32;109190;1253;71480;-61
2023/06/23 04:40:24;;;;;;;11.00;3.20;;;;;;;22.97;100.00;100568.59;109260;1252;60146;-62
2023/06/23 04:43:18;;;;;;;8.10;4.10;;;;;;;23.03;100.00;100569.54;109224;1252;58858;-61
2023/06/23 04:45:55;;;;;;;5.60;3.90;;;;;;;23.15;100.00;100571.98;109124;1251;74439;-61
2023/06/23 04:48:25;;;;;;;8.50;3.70;;;;;;;23.28;100.00;100573.86;109358;1252;65644;-62
2023/06/23 04:50:55;;;;;;;5.90;3.60;;;;;;;23.42;100.00;100574.23;109261;1252;71440;-64
2023/06/23 04:53:25;;;;;;;6.60;3.20;;;;;;;23.58;100.00;100571.09;109264;1253;59318;-61
2023/06/23 04:55:58;;;;;;;8.70;3.70;;;;;;;23.79;100.00;100572.87;109324;1252;60030;-63
2023/06/23 04:58:26;;;;;;;6.80;3.80;;;;;;;23.99;100.00;100574.52;109250;1253;74296;-61
2023/06/23 05:00:54;;;;;;;8.40;5.20;;;;;;;24.11;100.00;100573.88;109223;1253;66944;-63
2023/06/23 05:03:22;;;;;;;8.70;5.90;;;;;;;24.18;100.00;100571.75;109300;1253;73201;-62
2023/06/23 05:05:51;;;;;;;13.10;5.70;;;;;;;24.25;100.00;100567.93;109322;1251;58878;-62
2023/06/23 05:08:19;;;;;;;9.90;5.70;;;;;;;24.27;100.00;100563.56;109255;1253;58912;-62
2023/06/23 05:10:46;;;;;;;8.60;3.80;;;;;;;24.36;100.00;100566.91;109175;1252;73866;-62
2023/06/23 05:13:14;;;;;;;6.50;3.40;;;;;;;24.56;100.00;100562.40;109154;1251;67520;-63
2023/06/23 05:15:41;;;;;;;9.20;2.90;;;;;;;24.90;100.00;100556.35;109314;1252;72369;-62
2023/06/23 05:18:09;;;;;;;6.90;2.70;;;;;;;25.46;100.00;100551.20;109152;1251;58796;-62
2023/06/23 05:20:37;;;;;;;4.50;3.10;;;;;;;26.27;100.00;100548.44;109318;1253;58823;-64
2023/06/23 05:23:05;;;;;;;5.70;3.70;;;;;;;26.94;100.00;100543.96;109284;1253;74393;-63
2023/06/23 05:25:33;;;;;;;5.40;3.50;;;;;;;27.54;100.00;100541.84;109322;1253;67271;-62
2023/06/23 05:28:01;;;;;;;5.90;3.50;;;;;;;28.19;100.00;100542.48;109221;1252;72721;-62
2023/06/23 05:30:29;;;;;;;4.70;2.90;;;;;;;29.01;100.00;100537.03;109114;1251;59019;-63
2023/06/23 05:32:58;;;;;;;5.50;3.10;;;;;;;29.89;91.60;100532.30;109133;1251;59009;-64
2023/06/23 05:35:26;;;;;;;6.90;3.20;;;;;;;30.48;83.66;100531.85;109072;1252;74446;-63
2023/06/23 05:37:53;;;;;;;5.30;2.40;;;;;;;30.94;75.73;100527.17;109117;1253;65736;-62
2023/06/23 05:40:21;;;;;;;5.10;2.90;;;;;;;31.23;70.16;100529.73;109129;1252;72473;-64
2023/06/23 05:42:48;;;;;;;6.80;3.20;;;;;;;31.39;68.42;100527.64;109316;1251;58947;-62
2023/06/23 05:45:16;;;;;;;7.30;3.60;;;;;;;31.64;68.08;100528.56;109300;1251;58846;-67
2023/06/23 05:47:53;;;;;;;5.20;3.10;;;;;;;32.06;61.91;100527.88;109247;1253;74436;-63
2023/06/23 05:50:24;;;;;;;11.00;3.10;;;;;;;32.57;59.21;100526.70;109339;1253;65800;-63
2023/06/23 05:52:56;;;;;;;5.30;2.60;;;;;;;33.25;53.88;100523.27;109206;1253;71455;-63
2023/06/23 05:55:25;;;;;;;4.90;3.10;;;;;;;33.80;47.94;100515.98;109154;1253;58217;-65
2023/06/23 05:57:56;;;;;;;6.10;2.40;;;;;;;34.02;45.46;100512.35;109095;1253;58580;-62
2023/06/23 06:00:23;;;;;;;5.70;3.00;;;;;;;34.09;43.92;100509.98;109204;1253;63899;-62
2023/06/23 06:02:53;;;;;;;4.30;2.60;;;;;;;34.16;43.58;100506.98;109243;1253;67471;-61
2023/06/23 06:05:21;;;;;;;5.10;2.30;;;;;;;34.33;44.28;100500.95;108964;1253;62636;-65
2023/06/23 06:07:49;;;;;;;3.50;2.40;;;;;;;34.67;44.60;100497.78;108946;1253;58759;-61
2023/06/23 06:10:16;;;;;;;5.80;2.40;;;;;;;34.97;41.34;100495.06;109281;1253;58452;-61
2023/06/23 06:12:44;;;;;;;5.50;2.70;;;;;;;34.97;40.05;100486.86;109170;1253;65016;-61
2023/06/23 06:15:15;;;;;;;3.90;2.70;;;;;;;34.80;39.77;100488.59;109033;1253;58214;-64
2023/06/23 06:17:43;;;;;;;4.50;2.70;;;;;;;34.50;42.19;100491.05;109246;1253;71724;-61
2023/06/23 06:20:11;;;;;;;11.80;3.10;;;;;;;34.59;45.44;100486.55;109264;1257;60148;-61
2023/06/23 06:22:39;;;;;;;3.80;2.20;;;;;;;35.11;43.72;100481.30;109055;1253;58246;-61
2023/06/23 06:25:07;;;;;;;5.00;2.40;;;;;;;35.69;40.50;100475.96;109043;1253;65093;-62
2023/06/23 06:27:34;;;;;;;6.30;2.40;;;;;;;36.07;37.34;100476.42;109276;1253;65812;-64
2023/06/23 06:30:03;;;;;;;6.40;2.70;;;;;;;36.05;35.73;100473.90;109265;1253;62533;-61
2023/06/23 06:32:32;;;;;;;6.50;2.70;;;;;;;35.74;34.91;100467.98;109156;1253;58575;-61
2023/06/23 06:35:04;;;;;;;4.40;2.60;;;;;;;35.33;35.82;100473.28;109122;1253;58380;-62
2023/06/23 06:37:34;;;;;;;4.50;2.70;;;;;;;35.19;36.75;100475.73;109059;1253;63713;-65
2023/06/23 06:40:05;;;;;;;4.30;2.00;;;;;;;35.30;35.58;100467.70;109353;1253;66550;-63
2023/06/23 06:42:34;;;;;;;3.60;2.30;;;;;;;35.28;34.72;100467.58;109091;1253;63795;-62
2023/06/23 06:45:01;;;;;;;4.10;2.30;;;;;;;35.18;35.05;100468.92;109273;1253;58962;-63
2023/06/23 06:47:29;;;;;;;4.40;2.30;;;;;;;35.08;35.50;100465.70;109274;1253;58266;-65
2023/06/23 06:49:58;;;;;;;5.70;2.50;;;;;;;34.96;35.62;100465.39;109167;1253;63768;-62
2023/06/23 06:52:26;;;;;;;4.40;2.60;;;;;;;34.73;34.93;100466.02;109280;1253;58660;-63
2023/06/23 06:55:18;;;;;;;6.00;2.70;;;;;;;34.20;35.49;100465.64;109095;1253;63872;-63
2023/06/23 06:57:46;;;;;;;6.20;2.40;;;;;;;33.55;37.15;100465.20;109258;1253;60182;-62
2023/06/23 07:00:16;;;;;;;5.60;2.60;;;;;;;33.00;39.30;100470.04;109306;1257;60114;-63
2023/06/23 07:02:44;;;;;;;3.90;2.50;;;;;;;32.53;41.37;100468.45;109260;1253;74536;-61
2023/06/23 07:05:13;;;;;;;10.60;3.50;;;;;;;32.11;43.95;100471.38;109181;1253;66861;-62
2023/06/23 07:07:41;;;;;;;4.40;2.80;;;;;;;31.72;46.08;100465.79;109223;1253;71422;-60
2023/06/23 07:10:08;;;;;;;3.90;2.80;;;;;;;31.34;51.02;100460.73;109311;1251;58764;-60
2023/06/23 07:12:36;;;;;;;4.80;3.50;;;;;;;31.07;55.77;100460.39;109246;1252;60073;-59
2023/06/23 07:15:04;;;;;;;5.90;3.80;;;;;;;30.86;58.64;100460.92;109298;1251;73293;-60
2023/06/23 07:17:32;;;;;;;7.70;4.20;;;;;;;30.70;63.90;100456.59;109309;1253;65707;-59
2023/06/23 07:19:59;;;;;;;6.90;4.10;;;;;;;30.66;66.27;100456.17;109330;1252;71670;-60
2023/06/23 07:22:27;;;;;;;4.80;3.70;;;;;;;30.71;66.57;100454.15;109264;1252;58872;-63
2023/06/23 07:24:55;;;;;;;6.10;4.00;;;;;;;30.77;64.79;100451.61;109298;1253;58998;-61
2023/06/23 07:27:23;;;;;;;7.20;3.70;;;;;;;30.85;64.44;100448.29;109251;1254;73895;-61
2023/06/23 07:29:51;;;;;;;4.50;3.10;;;;;;;31.10;61.67;100447.27;109352;1253;67445;-62
2023/06/23 07:32:18;;;;;;;4.80;3.20;;;;;;;31.61;57.38;100443.77;109251;1253;71337;-61
2023/06/23 07:34:46;;;;;;;6.30;2.90;;;;;;;32.26;53.40;100442.27;109246;1253;58844;-64
2023/06/23 07:37:13;;;;;;;4.20;2.90;;;;;;;32.75;45.71;100441.70;109239;1253;58511;-61
2023/06/23 07:39:41;;;;;;;3.60;2.60;;;;;;;33.06;41.06;100434.58;109340;1253;72185;-61
2023/06/23 07:42:09;;;;;;;5.70;3.10;;;;;;;33.30;40.18;100431.33;109278;1253;65757;-61
2023/06/23 07:44:37;;;;;;;4.60;2.70;;;;;;;33.65;38.81;100427.02;109238;1253;72749;-63
2023/06/23 07:47:05;;;;;;;4.90;2.60;;;;;;;34.15;37.51;100421.27;109269;1253;60588;-60
2023/06/23 07:49:33;;;;;;;3.90;2.80;;;;;;;34.67;35.69;100423.82;109215;1252;58703;-62
2023/06/23 07:52:00;;;;;;;5.40;3.00;;;;;;;35.05;33.64;100417.77;109325;1251;74441;-61
2023/06/23 07:54:29;;;;;;;4.50;2.30;;;;;;;35.39;33.21;100413.02;109315;1252;58327;-62
2023/06/23 07:56:57;;;;;;;3.70;2.70;;;;;;;35.82;32.14;100409.45;109239;1253;62602;-61
2023/06/23 07:59:25;;;;;;;5.20;2.80;;;;;;;36.15;31.54;100411.57;109301;1252;58803;-63
2023/06/23 08:01:53;;;;;;;4.70;2.30;;;;;;;36.37;30.96;100410.91;109313;1253;58086;-61
2023/06/23 08:04:22;;;;;;;5.20;2.70;;;;;;;36.56;30.54;100406.55;109289;1253;63693;-61
2023/06/23 08:06:50;;;;;;;3.80;2.60;;;;;;;36.66;30.85;100404.44;109263;1254;58566;-62
2023/06/23 08:09:18;;;;;;;4.80;2.70;;;;;;;36.63;29.85;100401.03;109280;1253;62582;-62
2023/06/23 08:11:46;;;;;;;3.80;2.60;;;;;;;36.45;29.46;100405.28;109278;1251;58487;-61
2023/06/23 08:14:13;;;;;;;5.20;2.40;;;;;;;36.23;28.96;100406.02;109348;1256;58702;-60
2023/06/23 08:16:41;;;;;;;4.10;2.90;;;;;;;35.98;27.95;100403.86;109337;1252;65046;-62
2023/06/23 08:19:08;;;;;;;4.00;3.00;;;;;;;35.83;28.37;100402.56;109330;1251;67883;-60
2023/06/23 08:21:36;;;;;;;5.00;2.50;;;;;;;35.92;27.99;100402.32;109258;1253;63763;-62
2023/06/23 08:24:04;;;;;;;4.20;3.00;;;;;;;36.00;27.57;100399.04;109319;1252;58141;-61
2023/06/23 08:26:32;;;;;;;3.60;2.70;;;;;;;36.02;27.73;100396.48;109353;1251;58255;-61
2023/06/23 08:28:59;;;;;;;5.60;3.40;;;;;;;36.09;27.74;100393.14;109272;1253;65062;-62
2023/06/23 08:31:27;;;;;;;8.50;4.60;;;;;;;36.20;27.20;100389.27;109346;1253;58679;-61
2023/06/23 08:33:55;;;;;;;6.90;3.30;;;;;;;36.20;26.27;100389.91;109352;1253;63166;-60
2023/06/23 08:36:22;;;;;;;4.30;3.00;;;;;;;36.08;26.22;100384.58;109346;1251;58385;-61
2023/06/23 08:38:50;;;;;;;6.20;3.30;;;;;;;36.09;26.79;100383.83;109322;1251;58022;-62
2023/06/23 08:41:20;;;;;;;4.10;2.80;;;;;;;36.09;26.44;100383.67;109349;1252;65007;-60
2023/06/23 08:43:48;;;;;;;5.80;3.00;;;;;;;35.94;26.50;100384.09;109295;1252;58198;-62
2023/06/23 08:46:16;;;;;;;6.00;3.00;;;;;;;35.84;27.18;100383.83;109346;1253;63960;-60
2023/06/23 08:48:48;;;;;;;3.40;2.60;;;;;;;35.87;26.73;100381.56;109319;1253;58684;-61
2023/06/23 08:51:16;;;;;;;3.80;2.70;;;;;;;35.88;27.17;100379.66;109311;1252;58181;-60
2023/06/23 08:53:44;;;;;;;3.60;2.70;;;;;;;36.03;27.11;100372.75;109359;1254;65016;-63
2023/06/23 08:56:13;;;;;;;8.10;3.10;;;;;;;36.28;26.35;100369.85;109206;1251;58569;-61
2023/06/23 08:58:40;;;;;;;4.80;2.60;;;;;;;36.53;25.55;100367.77;109350;1251;63866;-60
2023/06/23 09:01:08;;;;;;;3.90;2.50;;;;;;;36.51;25.39;100372.84;109260;1251;58649;-62
2023/06/23 09:03:36;;;;;;;5.20;2.80;;;;;;;36.38;26.02;100369.42;109348;1253;58252;-61
2023/06/23 09:06:04;;;;;;;3.90;2.70;;;;;;;36.34;26.10;100367.50;109153;1251;65002;-64
2023/06/23 09:08:31;;;;;;;4.10;2.60;;;;;;;36.31;26.32;100360.36;109242;1251;58292;-60
2023/06/23 09:10:59;;;;;;;5.40;2.60;;;;;;;36.24;26.56;100359.98;109343;1254;62587;-63
2023/06/23 09:13:30;;;;;;;6.10;3.00;;;;;;;36.22;26.64;100361.87;109265;1254;62181;-60
2023/06/23 09:15:57;;;;;;;4.60;2.90;;;;;;;36.18;26.45;100355.89;109364;1251;58716;-63
2023/06/23 09:18:32;;;;;;;5.00;3.30;;;;;;;36.03;27.07;100357.27;109369;1256;74532;-60
2023/06/23 09:21:03;;;;;;;6.40;3.10;;;;;;;35.94;27.38;100353.15;109310;1254;58382;-60
2023/06/23 09:23:31;;;;;;;5.50;3.10;;;;;;;35.85;27.90;100348.19;109350;1252;64306;-61
2023/06/23 09:26:03;;;;;;;3.40;2.90;;;;;;;35.71;28.21;100351.04;109331;1253;58752;-61
2023/06/23 09:28:37;;;;;;;4.10;3.40;;;;;;;35.71;28.31;100348.73;109327;1254;58170;-60
2023/06/23 09:31:11;;;;;;;6.00;3.70;;;;;;;35.90;28.34;100346.63;109283;1251;63687;-63
2023/06/23 09:33:49;;;;;;;8.90;3.80;;;;;;;36.14;27.52;100345.10;109343;1253;58631;-60
2023/06/23 09:36:17;;;;;;;5.10;2.90;;;;;;;36.28;26.68;100344.01;109354;1251;63867;-60
2023/06/23 09:38:45;;;;;;;3.40;2.70;;;;;;;36.33;26.01;100340.79;109337;1251;58588;-60
2023/06/23 09:41:16;;;;;;;4.70;2.80;;;;;;;36.38;26.00;100336.02;109286;1254;58098;-60
2023/06/23 09:43:50;;;;;;;4.40;3.30;;;;;;;36.53;25.59;100335.48;109326;1251;64962;-62
2023/06/23 09:46:20;;;;;;;5.00;2.80;;;;;;;36.79;25.07;100329.80;109358;1251;58241;-60
2023/06/23 09:48:51;;;;;;;3.40;2.70;;;;;;;37.17;24.81;100326.95;109313;1254;63785;-63
2023/06/23 09:51:19;;;;;;;4.10;3.00;;;;;;;37.42;24.46;100320.83;109332;1256;58552;-59
2023/06/23 09:53:47;;;;;;;3.30;2.70;;;;;;;37.50;24.66;100322.66;109277;1252;58604;-59
2023/06/23 09:56:16;;;;;;;4.10;3.00;;;;;;;37.55;24.16;100319.40;109238;1254;65039;-60
2023/06/23 09:58:45;;;;;;;5.60;2.80;;;;;;;37.51;23.87;100316.77;109202;1252;58750;-61
2023/06/23 10:01:15;;;;;;;4.90;3.10;;;;;;;37.47;24.33;100319.27;109347;1251;63952;-63
2023/06/23 10:03:47;;;;;;;5.10;3.30;;;;;;;37.52;24.37;100322.85;109223;1253;58180;-62
2023/06/23 10:06:32;;;;;;;4.40;3.30;;;;;;;37.49;24.06;100325.51;109323;1252;58804;-65
2023/06/23 10:09:01;;;;;;;4.90;3.40;;;;;;;37.18;24.03;100327.30;109229;1253;63606;-63
2023/06/23 10:11:29;;;;;;;4.20;3.30;;;;;;;36.67;24.13;100330.81;109264;1253;68303;-64
2023/06/23 10:14:07;;;;;;;5.50;3.40;;;;;;;36.42;24.94;100329.98;109340;1251;63973;-64
2023/06/23 10:16:35;;;;;;;4.30;3.60;;;;;;;36.42;25.82;100325.23;109317;1252;58290;-64
2023/06/23 10:19:03;;;;;;;4.90;3.30;;;;;;;36.46;24.91;100319.20;109277;1251;58483;-64
2023/06/23 10:21:31;;;;;;;5.30;3.00;;;;;;;36.35;25.33;100320.98;109258;1253;65417;-64
2023/06/23 10:24:08;;;;;;;6.10;3.60;;;;;;;36.20;25.70;100318.95;109223;1254;58565;-63
2023/06/23 10:26:36;;;;;;;4.70;3.50;;;;;;;36.11;26.01;100319.59;109324;1253;63847;-63
2023/06/23 10:29:06;;;;;;;6.00;4.00;;;;;;;35.98;26.38;100319.78;109239;1251;58645;-65
2023/06/23 10:31:34;;;;;;;4.50;3.40;;;;;;;35.86;25.93;100318.61;109335;1254;58150;-62
2023/06/23 10:34:04;;;;;;;5.40;4.10;;;;;;;35.77;26.23;100320.73;109091;1254;63762;-65
2023/06/23 10:36:32;;;;;;;4.30;3.30;;;;;;;35.80;26.87;100318.16;108851;1253;406319;-61
2023/06/23 10:39:01;;;;;;;5.70;3.60;;;;;;;36.01;26.37;100312.70;109366;1251;62991;-61
2023/06/23 10:41:29;;;;;;;4.10;3.40;;;;;;;36.32;26.17;100312.84;109256;1253;59154;-61
2023/06/23 10:43:56;;;;;;;4.00;3.30;;;;;;;36.53;25.99;100312.92;109259;1252;58140;-64
2023/06/23 10:46:24;;;;;;;4.50;3.00;;;;;;;36.63;25.52;100305.59;109278;1254;65638;-64
2023/06/23 10:48:52;;;;;;;4.70;3.10;;;;;;;36.71;25.30;100300.94;109144;1254;58318;-65
2023/06/23 10:51:19;;;;;;;6.00;3.50;;;;;;;36.75;24.99;100303.96;109284;1251;62669;-64
2023/06/23 10:53:58;;;;;;;5.00;3.60;;;;;;;36.57;24.64;100308.70;109301;1253;58678;-62
2023/06/23 10:56:39;;;;;;;4.40;3.20;;;;;;;36.17;24.87;100310.19;109306;1254;58396;-63
2023/06/23 10:59:27;;;;;;;5.10;3.30;;;;;;;35.83;25.13;100309.42;109312;1253;65023;-65
2023/06/23 11:02:02;;;;;;;4.40;3.50;;;;;;;35.57;26.09;100301.36;109279;1253;58886;-63
2023/06/23 11:04:31;;;;;;;4.40;3.30;;;;;;;35.65;26.99;100301.15;109334;1254;72883;-61
2023/06/23 11:07:03;;;;;;;4.30;3.60;;;;;;;35.90;26.75;100296.31;109251;1252;58200;-62
2023/06/23 11:09:47;;;;;;;4.90;3.30;;;;;;;36.10;26.33;100290.12;109279;1251;58052;-66
2023/06/23 11:12:27;;;;;;;5.20;3.50;;;;;;;36.21;26.21;100292.30;109330;1253;67262;-64
2023/06/23 11:15:16;;;;;;;4.70;3.50;;;;;;;36.32;25.92;100292.37;109295;1251;67952;-62
2023/06/23 11:17:48;;;;;;;6.60;3.80;;;;;;;36.36;25.69;100289.56;109318;1253;65739;-63
2023/06/23 11:20:19;;;;;;;5.10;3.10;;;;;;;36.27;25.99;100289.23;109314;1253;58765;-65
2023/06/23 11:23:00;;;;;;;5.50;3.40;;;;;;;36.25;25.58;100281.81;109291;1252;58669;-65
2023/06/23 11:25:29;;;;;;;6.00;3.50;;;;;;;36.33;25.90;100277.27;109354;1251;65201;-63
2023/06/23 11:28:35;;;;;;;4.30;3.30;;;;;;;36.54;26.01;100273.45;109339;1251;58215;-67